Time;durP1;ratioP1;P1;durP2;ratioP2;P2;SDS_P1;SDS_P2;PMS_P1;PMS_P2;Temp;Humidity;BMP_temperature;BMP_pressure;BME280_temperature;BME280_humidity;BME280_pressure;Samples;Min_cycle;Max_cycle;Signal;HPM_P1;HPM_P2
2023/09/13 00:01:51;;;;;;;26.05;18.05;;;18.40;99.90;;;;;;5032907;28;20243;-64
2023/09/13 00:04:17;;;;;;;25.58;17.90;;;18.40;99.90;;;;;;5024506;28;20580;-64
2023/09/13 00:06:42;;;;;;;32.20;18.67;;;18.40;99.90;;;;;;5018361;28;20067;-64
2023/09/13 00:09:08;;;;;;;28.17;18.55;;;18.40;99.90;;;;;;5032828;28;20071;-64
2023/09/13 00:11:37;;;;;;;27.88;17.63;;;18.40;99.90;;;;;;5034194;28;20073;-64
2023/09/13 00:14:03;;;;;;;30.80;17.58;;;18.40;99.90;;;;;;5033938;28;20090;-63
2023/09/13 00:16:29;;;;;;;31.23;18.25;;;18.40;99.90;;;;;;5048188;28;20045;-63
2023/09/13 00:18:55;;;;;;;26.55;17.00;;;18.40;99.90;;;;;;5037919;28;20513;-64
2023/09/13 00:21:20;;;;;;;26.52;16.65;;;18.30;99.90;;;;;;5011078;28;20479;-64
2023/09/13 00:23:47;;;;;;;29.35;17.10;;;18.40;99.90;;;;;;5042166;28;20049;-63
2023/09/13 00:26:16;;;;;;;27.23;17.27;;;18.40;99.90;;;;;;5035174;28;20044;-63
2023/09/13 00:28:42;;;;;;;28.73;16.63;;;18.40;99.90;;;;;;5015969;28;20048;-63
2023/09/13 00:31:11;;;;;;;29.90;17.17;;;18.30;99.90;;;;;;5032279;28;20041;-64
2023/09/13 00:33:38;;;;;;;31.33;17.77;;;18.40;99.90;;;;;;5028021;28;20071;-63
2023/09/13 00:36:03;;;;;;;27.70;17.02;;;18.40;99.90;;;;;;5052833;28;20084;-63
2023/09/13 00:38:29;;;;;;;22.38;16.55;;;18.40;99.90;;;;;;5053365;28;20076;-64
2023/09/13 00:40:56;;;;;;;27.63;17.38;;;18.30;99.90;;;;;;5033463;28;20425;-63
2023/09/13 00:43:22;;;;;;;26.13;17.65;;;18.30;99.90;;;;;;5028825;28;20041;-64
2023/09/13 00:45:50;;;;;;;28.40;17.15;;;18.30;99.90;;;;;;5031822;28;20095;-64
2023/09/13 00:48:17;;;;;;;26.88;16.73;;;18.30;99.90;;;;;;5035090;28;20124;-64
2023/09/13 00:50:45;;;;;;;23.88;15.93;;;18.30;99.90;;;;;;5035056;28;20051;-64
2023/09/13 00:53:12;;;;;;;27.65;16.27;;;18.30;99.90;;;;;;5040759;28;20051;-63
2023/09/13 00:55:38;;;;;;;31.80;16.33;;;18.30;99.90;;;;;;5018602;28;20060;-63
2023/09/13 00:58:05;;;;;;;24.13;15.63;;;18.30;99.90;;;;;;5039266;28;20504;-64
2023/09/13 01:00:32;;;;;;;21.63;13.95;;;18.30;99.90;;;;;;5061454;28;20041;-64
2023/09/13 01:02:59;;;;;;;26.05;15.02;;;18.30;99.90;;;;;;5052508;28;20052;-63
2023/09/13 01:05:26;;;;;;;21.17;13.27;;;18.30;99.90;;;;;;5040525;28;20037;-63
2023/09/13 01:07:51;;;;;;;22.10;13.85;;;18.20;99.90;;;;;;5023558;28;20040;-63
2023/09/13 01:10:19;;;;;;;26.23;14.05;;;18.20;99.90;;;;;;5040546;28;20427;-63
2023/09/13 01:12:45;;;;;;;24.15;12.23;;;18.20;99.90;;;;;;5050320;28;20507;-63
2023/09/13 01:15:12;;;;;;;20.23;12.02;;;18.10;99.90;;;;;;5012534;28;20109;-64
2023/09/13 01:18:10;;;;;;;28.92;11.80;;;18.10;99.90;;;;;;5030919;28;20045;-64
2023/09/13 01:20:42;;;;;;;23.95;10.38;;;18.10;99.90;;;;;;5042299;28;20102;-63
2023/09/13 01:23:27;;;;;;;17.77;9.87;;;18.00;99.90;;;;;;5042306;28;20047;-63
2023/09/13 01:26:13;;;;;;;21.40;10.50;;;18.00;99.90;;;;;;5084601;28;20286;-63
2023/09/13 01:28:40;;;;;;;19.85;10.73;;;18.00;99.90;;;;;;5058976;28;20051;-63
2023/09/13 01:31:09;;;;;;;16.20;9.60;;;18.00;99.90;;;;;;5089576;28;20463;-63
2023/09/13 01:33:35;;;;;;;22.83;10.18;;;17.90;99.90;;;;;;5082491;28;20074;-63
2023/09/13 01:36:01;;;;;;;20.10;10.13;;;17.90;99.90;;;;;;5056386;28;20144;-63
2023/09/13 01:38:28;;;;;;;18.45;9.93;;;17.90;99.90;;;;;;5038836;28;20052;-63
2023/09/13 01:41:07;;;;;;;18.02;8.38;;;17.90;99.90;;;;;;5036497;28;20050;-64
2023/09/13 01:43:34;;;;;;;15.15;6.85;;;17.80;99.90;;;;;;5042678;28;20072;-63
2023/09/13 01:46:01;;;;;;;15.90;7.90;;;17.80;99.90;;;;;;5046697;28;20037;-64
2023/09/13 01:48:28;;;;;;;13.05;7.43;;;17.80;99.90;;;;;;5054124;28;20041;-63
2023/09/13 01:50:55;;;;;;;14.35;6.88;;;17.80;99.90;;;;;;5024809;28;20044;-63
2023/09/13 01:53:20;;;;;;;14.02;6.25;;;17.70;99.90;;;;;;5041275;28;20100;-63
2023/09/13 01:55:46;;;;;;;14.52;6.28;;;17.70;99.90;;;;;;5055955;28;20048;-63
2023/09/13 01:58:12;;;;;;;10.88;5.65;;;17.70;99.90;;;;;;5042441;28;20075;-63
2023/09/13 02:00:39;;;;;;;15.88;6.32;;;17.70;99.90;;;;;;5076069;28;20040;-63
2023/09/13 02:03:05;;;;;;;14.18;6.20;;;17.60;99.90;;;;;;5059522;28;20049;-63
2023/09/13 02:05:31;;;;;;;11.00;6.05;;;17.60;99.90;;;;;;5044793;28;20047;-63
2023/09/13 02:07:57;;;;;;;11.43;5.47;;;17.60;99.90;;;;;;5019025;28;20032;-63
2023/09/13 02:10:22;;;;;;;11.63;5.20;;;17.60;99.90;;;;;;5042559;28;20133;-63
2023/09/13 02:12:48;;;;;;;12.68;5.30;;;17.60;99.90;;;;;;5033449;28;20041;-63
2023/09/13 02:15:14;;;;;;;9.35;5.47;;;17.60;99.90;;;;;;5050620;28;20041;-62
2023/09/13 02:17:41;;;;;;;9.15;5.30;;;17.50;99.90;;;;;;5058507;28;20039;-62
2023/09/13 02:20:07;;;;;;;11.23;4.65;;;17.50;99.90;;;;;;5090945;28;20174;-62
2023/09/13 02:22:33;;;;;;;12.23;4.47;;;17.50;99.90;;;;;;5020966;28;20041;-63
2023/09/13 02:24:59;;;;;;;12.52;4.68;;;17.50;99.90;;;;;;5000775;28;20045;-62
2023/09/13 02:27:24;;;;;;;11.75;4.47;;;17.40;99.90;;;;;;5054754;28;20036;-62
2023/09/13 02:29:50;;;;;;;11.80;4.30;;;17.40;99.90;;;;;;5040607;28;21452;-62
2023/09/13 02:32:16;;;;;;;12.73;4.95;;;17.40;99.90;;;;;;5039824;28;20598;-62
2023/09/13 02:34:45;;;;;;;11.45;4.97;;;17.30;99.90;;;;;;5041365;28;20048;-63
2023/09/13 02:37:14;;;;;;;10.38;4.50;;;17.30;99.90;;;;;;5057107;28;20521;-63
2023/09/13 02:39:41;;;;;;;13.85;4.88;;;17.30;99.90;;;;;;5060387;28;20427;-62
2023/09/13 02:42:07;;;;;;;9.70;4.80;;;17.30;99.90;;;;;;5059319;28;20060;-62
2023/09/13 02:44:34;;;;;;;10.35;4.65;;;17.30;99.90;;;;;;5084735;28;20048;-62
2023/09/13 02:47:00;;;;;;;10.30;4.82;;;17.30;99.90;;;;;;5089358;28;20036;-63
2023/09/13 02:49:26;;;;;;;11.00;4.72;;;17.20;99.90;;;;;;5031787;28;20474;-62
2023/09/13 02:51:52;;;;;;;11.57;5.35;;;17.20;99.90;;;;;;5035372;28;20135;-62
2023/09/13 02:54:19;;;;;;;15.77;5.05;;;17.20;99.90;;;;;;5055500;28;20504;-63
2023/09/13 02:56:46;;;;;;;16.90;5.28;;;17.20;99.90;;;;;;5059982;28;20036;-62
2023/09/13 02:59:12;;;;;;;15.23;5.28;;;17.20;99.90;;;;;;5059318;28;20505;-62
2023/09/13 03:01:38;;;;;;;14.15;4.65;;;17.10;99.90;;;;;;5039214;28;20049;-63
2023/09/13 03:04:04;;;;;;;11.38;4.93;;;17.20;99.90;;;;;;5077421;28;20048;-63
2023/09/13 03:06:29;;;;;;;11.63;4.78;;;17.10;99.90;;;;;;5060415;28;20116;-62
2023/09/13 03:08:56;;;;;;;11.43;4.57;;;17.10;99.90;;;;;;5042881;28;20033;-63
2023/09/13 03:11:22;;;;;;;10.68;5.00;;;17.10;99.90;;;;;;5041718;28;20048;-62
2023/09/13 03:13:47;;;;;;;16.75;6.05;;;17.10;99.90;;;;;;5044225;28;20040;-62
2023/09/13 03:16:21;;;;;;;11.48;4.97;;;17.10;99.90;;;;;;5042795;28;20482;-62
2023/09/13 03:18:49;;;;;;;12.80;4.95;;;17.10;99.90;;;;;;5055916;28;20048;-62
2023/09/13 03:21:18;;;;;;;13.90;6.00;;;17.10;99.90;;;;;;5085031;28;20052;-63
2023/09/13 03:23:45;;;;;;;10.13;5.30;;;17.00;99.90;;;;;;5044584;28;20490;-62
2023/09/13 03:26:16;;;;;;;10.20;5.22;;;17.00;99.90;;;;;;5059696;28;20052;-62
2023/09/13 03:28:44;;;;;;;9.77;5.35;;;17.00;99.90;;;;;;5061612;28;20032;-62
2023/09/13 03:31:14;;;;;;;16.08;6.65;;;17.00;99.90;;;;;;5060495;28;20041;-62
2023/09/13 03:33:41;;;;;;;11.63;5.78;;;17.00;99.90;;;;;;5067787;28;20123;-62
2023/09/13 03:36:08;;;;;;;9.35;5.20;;;17.00;99.90;;;;;;5055919;28;20048;-62
2023/09/13 03:38:37;;;;;;;10.98;5.35;;;17.00;99.90;;;;;;5038114;28;20118;-62
2023/09/13 03:41:06;;;;;;;10.95;5.25;;;17.00;99.90;;;;;;5035987;28;20123;-63
2023/09/13 03:43:32;;;;;;;12.55;5.15;;;17.00;99.90;;;;;;5058232;28;20060;-63
2023/09/13 03:45:59;;;;;;;11.65;5.60;;;16.90;99.90;;;;;;5061715;28;20040;-62
2023/09/13 03:48:24;;;;;;;14.90;5.45;;;17.00;99.90;;;;;;5038368;28;20037;-62
2023/09/13 03:50:50;;;;;;;11.35;5.30;;;17.00;99.90;;;;;;5042749;28;20482;-62
2023/09/13 03:53:16;;;;;;;11.73;5.07;;;16.90;99.90;;;;;;5082431;28;20068;-62
2023/09/13 03:55:43;;;;;;;12.20;5.38;;;16.90;99.90;;;;;;5043833;28;20175;-62
2023/09/13 03:58:09;;;;;;;9.57;5.90;;;16.90;99.90;;;;;;5058510;28;20048;-62
2023/09/13 04:00:38;;;;;;;14.43;5.95;;;16.90;99.90;;;;;;5053821;28;20053;-62
2023/09/13 04:03:04;;;;;;;9.32;5.25;;;16.90;99.90;;;;;;5059762;28;20087;-62
2023/09/13 04:05:30;;;;;;;10.02;5.25;;;16.90;99.90;;;;;;5037819;28;20044;-62
2023/09/13 04:07:57;;;;;;;9.63;5.05;;;16.90;99.90;;;;;;5028416;28;20482;-62
2023/09/13 04:10:23;;;;;;;13.10;5.20;;;16.90;99.90;;;;;;5057609;28;20450;-62
2023/09/13 04:12:50;;;;;;;10.10;5.25;;;16.90;99.90;;;;;;5054330;28;20106;-62
2023/09/13 04:15:16;;;;;;;11.70;5.22;;;16.80;99.90;;;;;;5093623;28;20504;-63
2023/09/13 04:17:42;;;;;;;17.63;5.68;;;16.90;99.90;;;;;;5072244;28;20559;-62
2023/09/13 04:20:09;;;;;;;10.30;5.40;;;16.80;99.90;;;;;;5033139;28;20041;-63
2023/09/13 04:22:35;;;;;;;11.88;5.45;;;16.80;99.90;;;;;;5056770;28;20051;-62
2023/09/13 04:25:02;;;;;;;17.30;6.25;;;16.90;99.90;;;;;;5089834;28;20048;-62
2023/09/13 04:27:27;;;;;;;10.88;5.18;;;16.80;99.90;;;;;;5086731;28;20032;-62
2023/09/13 04:29:56;;;;;;;11.55;5.45;;;16.80;99.90;;;;;;5044718;28;20041;-62
2023/09/13 04:32:24;;;;;;;12.15;5.78;;;16.80;99.90;;;;;;5087324;28;21515;-62
2023/09/13 04:34:50;;;;;;;10.52;5.43;;;16.80;99.90;;;;;;5041285;28;20048;-62
2023/09/13 04:37:16;;;;;;;13.35;5.65;;;16.80;99.90;;;;;;5042602;28;20061;-62
2023/09/13 04:39:42;;;;;;;12.18;5.88;;;16.80;99.90;;;;;;5060983;28;20045;-62
2023/09/13 04:42:08;;;;;;;12.80;5.78;;;16.70;99.90;;;;;;5040427;28;20053;-62
2023/09/13 04:44:34;;;;;;;13.40;5.63;;;16.80;99.90;;;;;;5053540;28;20041;-62
2023/09/13 04:46:59;;;;;;;13.80;5.90;;;16.70;99.90;;;;;;5041030;28;20036;-62
2023/09/13 04:49:26;;;;;;;10.50;5.35;;;16.70;99.90;;;;;;5053941;28;20063;-62
2023/09/13 04:51:52;;;;;;;12.57;5.45;;;16.70;99.90;;;;;;5055354;28;20051;-62
2023/09/13 04:54:22;;;;;;;10.95;5.03;;;16.70;99.90;;;;;;5029894;28;20044;-62
2023/09/13 04:56:50;;;;;;;14.88;5.63;;;16.70;99.90;;;;;;5058683;28;20057;-62
2023/09/13 04:59:16;;;;;;;11.15;5.50;;;16.70;99.90;;;;;;5063893;28;20539;-62
2023/09/13 05:01:42;;;;;;;15.15;6.05;;;16.70;99.90;;;;;;5042080;28;20133;-62
2023/09/13 05:04:09;;;;;;;11.25;6.07;;;16.70;99.90;;;;;;5026037;28;20125;-62
2023/09/13 05:06:34;;;;;;;12.02;6.18;;;16.70;99.90;;;;;;5056870;28;20541;-62
2023/09/13 05:09:00;;;;;;;13.15;5.68;;;16.70;99.90;;;;;;5058554;28;20052;-62
2023/09/13 05:11:26;;;;;;;10.95;5.85;;;16.70;99.90;;;;;;5053803;28;20402;-63
2023/09/13 05:14:14;;;;;;;17.77;6.10;;;16.70;99.90;;;;;;5032960;28;20110;-62
2023/09/13 05:16:40;;;;;;;15.57;6.50;;;16.60;99.90;;;;;;5038411;28;20049;-62
2023/09/13 05:19:06;;;;;;;25.08;6.38;;;16.60;99.90;;;;;;5057035;28;20087;-62
2023/09/13 05:21:33;;;;;;;13.32;5.93;;;16.60;99.90;;;;;;5090656;28;20036;-62
2023/09/13 05:24:00;;;;;;;11.23;5.90;;;16.60;99.90;;;;;;5023965;28;20041;-62
2023/09/13 05:26:26;;;;;;;14.70;5.90;;;16.60;99.90;;;;;;5062503;28;20032;-62
2023/09/13 05:28:51;;;;;;;30.50;6.47;;;16.50;99.90;;;;;;5092179;28;20111;-62
2023/09/13 05:31:17;;;;;;;12.10;5.50;;;16.60;99.90;;;;;;5059874;28;20044;-62
2023/09/13 05:33:43;;;;;;;12.30;5.57;;;16.60;99.90;;;;;;5042796;28;20439;-62
2023/09/13 05:36:10;;;;;;;10.50;5.20;;;16.60;99.90;;;;;;5073865;28;20370;-62
2023/09/13 05:38:36;;;;;;;9.10;4.85;;;16.50;99.90;;;;;;5050638;28;20063;-62
2023/09/13 05:41:08;;;;;;;9.75;4.30;;;16.50;99.90;;;;;;5043667;28;20052;-61
2023/09/13 05:43:39;;;;;;;19.75;4.40;;;16.50;99.90;;;;;;5057997;28;20044;-63
2023/09/13 05:46:06;;;;;;;11.88;3.80;;;16.50;99.90;;;;;;5043789;28;20051;-62
2023/09/13 05:48:33;;;;;;;8.77;3.42;;;16.40;99.90;;;;;;5041977;28;20044;-61
2023/09/13 05:50:59;;;;;;;10.45;3.80;;;16.40;99.90;;;;;;5042521;28;20044;-62
2023/09/13 05:53:25;;;;;;;11.18;3.40;;;16.30;99.90;;;;;;5039438;28;20059;-62
2023/09/13 05:55:51;;;;;;;7.50;3.20;;;16.20;99.90;;;;;;5035768;28;20041;-62
2023/09/13 05:58:17;;;;;;;9.85;3.30;;;16.20;99.90;;;;;;5041468;28;20048;-63
2023/09/13 06:00:48;;;;;;;13.13;4.07;;;16.10;99.90;;;;;;5040887;28;20139;-63
2023/09/13 06:03:18;;;;;;;9.40;2.88;;;16.10;99.90;;;;;;5083792;28;20037;-64
2023/09/13 06:05:45;;;;;;;9.25;3.40;;;16.00;99.90;;;;;;5016059;28;20049;-64
2023/09/13 06:08:10;;;;;;;9.48;3.00;;;15.90;99.90;;;;;;5042891;28;20511;-64
2023/09/13 06:10:36;;;;;;;8.63;2.97;;;15.80;99.90;;;;;;5001138;28;20042;-63
2023/09/13 06:13:02;;;;;;;8.57;3.47;;;15.60;99.90;;;;;;5044908;28;20044;-63
2023/09/13 06:15:27;;;;;;;8.70;3.10;;;15.50;99.90;;;;;;5057794;28;20047;-62
2023/09/13 06:17:54;;;;;;;12.43;3.25;;;15.40;99.90;;;;;;5043492;28;20033;-62
2023/09/13 06:20:21;;;;;;;10.77;3.53;;;15.20;99.90;;;;;;5039679;28;20367;-62
2023/09/13 06:22:47;;;;;;;8.95;3.40;;;15.10;99.90;;;;;;5041316;28;20126;-60
2023/09/13 06:25:16;;;;;;;11.77;3.78;;;15.00;99.90;;;;;;5085548;28;20504;-62
2023/09/13 06:27:45;;;;;;;11.23;3.20;;;14.90;99.90;;;;;;5058321;28;20051;-63
2023/09/13 06:30:12;;;;;;;10.57;3.42;;;14.80;99.90;;;;;;5026337;28;20045;-63
2023/09/13 06:32:39;;;;;;;15.43;4.25;;;14.60;99.90;;;;;;5040914;28;20046;-62
2023/09/13 06:35:09;;;;;;;12.10;3.90;;;14.50;99.90;;;;;;5057625;28;20466;-63
2023/09/13 06:37:34;;;;;;;12.95;4.10;;;14.50;99.90;;;;;;5035277;28;20561;-63
2023/09/13 06:40:00;;;;;;;21.73;4.68;;;14.40;99.90;;;;;;5029516;28;20132;-62
2023/09/13 06:42:26;;;;;;;12.27;3.90;;;14.40;99.90;;;;;;5052283;28;20409;-63
2023/09/13 06:44:52;;;;;;;11.32;3.60;;;14.30;99.90;;;;;;5041108;28;20041;-62
2023/09/13 06:47:18;;;;;;;15.70;3.88;;;14.30;99.90;;;;;;5023731;28;20043;-63
2023/09/13 06:49:44;;;;;;;14.00;3.83;;;14.20;99.90;;;;;;5052835;28;20037;-63
2023/09/13 06:52:09;;;;;;;14.15;3.92;;;14.20;99.90;;;;;;5068036;28;20395;-63
2023/09/13 06:54:35;;;;;;;12.38;4.43;;;14.20;99.90;;;;;;5034751;28;20055;-64
2023/09/13 06:57:01;;;;;;;7.00;3.60;;;14.20;99.90;;;;;;5057782;28;20305;-63
2023/09/13 06:59:26;;;;;;;11.25;4.10;;;14.10;99.90;;;;;;5037846;28;20052;-64
2023/09/13 07:01:52;;;;;;;7.30;3.67;;;14.10;99.90;;;;;;5034350;28;20047;-64
2023/09/13 07:04:18;;;;;;;10.98;3.38;;;14.10;99.90;;;;;;5036376;28;20045;-64
2023/09/13 07:06:44;;;;;;;11.20;3.60;;;14.00;99.90;;;;;;5018073;28;20090;-64
2023/09/13 07:09:09;;;;;;;7.78;3.55;;;14.10;99.90;;;;;;5051162;28;20039;-64
2023/09/13 07:11:35;;;;;;;10.73;3.95;;;14.00;99.90;;;;;;5058091;28;20040;-64
2023/09/13 07:14:01;;;;;;;9.98;4.22;;;14.10;99.90;;;;;;5033297;28;20045;-64
2023/09/13 07:16:27;;;;;;;10.40;3.58;;;14.10;99.90;;;;;;5055483;28;20509;-64
2023/09/13 07:18:54;;;;;;;9.45;3.45;;;14.10;99.90;;;;;;5042021;28;20136;-64
2023/09/13 07:21:20;;;;;;;10.30;3.50;;;14.10;99.90;;;;;;5065984;28;20549;-64
2023/09/13 07:23:46;;;;;;;7.95;3.70;;;14.10;99.90;;;;;;5042215;28;20133;-65
2023/09/13 07:26:11;;;;;;;8.27;3.65;;;14.10;99.90;;;;;;5065273;28;20041;-64
2023/09/13 07:28:37;;;;;;;12.65;3.38;;;14.10;99.90;;;;;;5024697;28;20036;-64
2023/09/13 07:31:07;;;;;;;9.38;3.95;;;14.10;99.90;;;;;;5022613;28;20090;-65
2023/09/13 07:33:33;;;;;;;10.10;3.40;;;14.10;99.90;;;;;;5050664;28;20518;-64
2023/09/13 07:35:59;;;;;;;14.02;4.10;;;14.00;99.90;;;;;;5041679;28;20496;-64
2023/09/13 07:38:25;;;;;;;10.25;4.10;;;14.10;99.90;;;;;;5054506;28;20102;-64
2023/09/13 07:40:51;;;;;;;8.50;3.40;;;14.10;99.90;;;;;;5037575;28;20047;-65
2023/09/13 07:43:17;;;;;;;11.10;3.85;;;14.00;99.90;;;;;;5034117;28;20045;-64
2023/09/13 07:45:43;;;;;;;10.57;4.85;;;14.00;99.90;;;;;;5028504;28;20036;-64
2023/09/13 07:48:09;;;;;;;10.77;4.47;;;14.00;99.90;;;;;;5054766;28;20072;-64
2023/09/13 07:50:38;;;;;;;10.93;4.32;;;14.00;99.90;;;;;;5037614;28;20090;-64
2023/09/13 07:53:04;;;;;;;8.10;3.70;;;14.00;99.90;;;;;;5047382;28;20059;-67
2023/09/13 07:55:30;;;;;;;9.77;4.15;;;14.00;99.90;;;;;;5083394;28;20498;-64
2023/09/13 07:57:56;;;;;;;9.50;3.75;;;14.00;99.90;;;;;;5051864;28;20033;-65
2023/09/13 08:00:22;;;;;;;7.18;3.90;;;14.00;99.90;;;;;;5017830;28;20063;-65
2023/09/13 08:02:48;;;;;;;10.18;4.22;;;14.00;99.90;;;;;;5071272;28;20045;-64
2023/09/13 08:05:15;;;;;;;8.77;3.63;;;14.10;99.90;;;;;;5050445;28;20041;-65
2023/09/13 08:07:41;;;;;;;8.38;3.97;;;14.00;99.90;;;;;;5050463;28;20052;-65
2023/09/13 08:10:07;;;;;;;13.57;4.60;;;14.10;99.90;;;;;;5032165;28;20045;-65
2023/09/13 08:12:33;;;;;;;9.50;4.00;;;14.00;99.90;;;;;;5033571;28;20086;-66
2023/09/13 08:14:59;;;;;;;11.07;4.15;;;14.00;99.90;;;;;;5051399;28;20029;-65
2023/09/13 08:17:28;;;;;;;10.75;4.65;;;14.10;99.90;;;;;;5012901;28;20138;-64
2023/09/13 08:19:53;;;;;;;8.93;4.22;;;14.10;99.90;;;;;;5065422;28;20048;-65
2023/09/13 08:22:19;;;;;;;9.85;3.88;;;14.10;99.90;;;;;;5037967;28;20060;-65
2023/09/13 08:24:45;;;;;;;14.50;4.43;;;14.20;99.90;;;;;;5002910;28;20045;-64
2023/09/13 08:27:10;;;;;;;10.43;4.60;;;14.20;99.90;;;;;;5075865;28;20040;-65
2023/09/13 08:29:37;;;;;;;11.10;4.35;;;14.20;99.90;;;;;;5044420;28;20041;-64
2023/09/13 08:32:03;;;;;;;8.40;4.18;;;14.20;99.90;;;;;;5036654;28;20045;-64
2023/09/13 08:34:28;;;;;;;9.65;4.38;;;14.20;99.90;;;;;;5020728;28;20044;-64
2023/09/13 08:36:56;;;;;;;16.35;5.13;;;14.20;99.90;;;;;;5077115;28;20041;-64
2023/09/13 08:39:22;;;;;;;10.02;4.40;;;14.20;99.90;;;;;;5072672;28;20092;-64
2023/09/13 08:41:53;;;;;;;9.75;5.00;;;14.20;99.90;;;;;;5054202;28;20045;-64
2023/09/13 08:44:20;;;;;;;13.82;4.68;;;14.20;99.90;;;;;;5054017;28;20495;-64
2023/09/13 08:46:58;;;;;;;8.25;4.43;;;14.30;99.90;;;;;;5056156;28;20516;-65
2023/09/13 08:49:25;;;;;;;10.05;4.57;;;14.20;99.90;;;;;;5048697;28;20042;-64
2023/09/13 08:51:52;;;;;;;9.02;4.40;;;14.30;99.90;;;;;;5053153;28;20037;-64
2023/09/13 08:54:19;;;;;;;8.43;3.88;;;14.20;99.90;;;;;;5037313;28;20102;-64
2023/09/13 08:56:45;;;;;;;7.45;3.90;;;14.30;99.90;;;;;;5037288;28;20037;-64
2023/09/13 08:59:15;;;;;;;8.63;4.25;;;14.30;99.90;;;;;;5028585;28;20044;-64
2023/09/13 09:01:49;;;;;;;8.00;3.83;;;14.20;99.90;;;;;;5025381;28;20107;-64
2023/09/13 09:04:17;;;;;;;10.13;4.25;;;14.20;99.90;;;;;;5064193;28;20056;-64
2023/09/13 09:06:43;;;;;;;6.18;3.83;;;14.30;99.90;;;;;;5029041;28;20072;-64
2023/09/13 09:09:09;;;;;;;8.15;4.18;;;14.40;99.90;;;;;;5036943;28;20041;-64
2023/09/13 09:11:38;;;;;;;14.10;4.70;;;14.50;99.90;;;;;;5033977;28;20491;-64
2023/09/13 09:14:04;;;;;;;6.75;3.80;;;14.60;99.90;;;;;;5036572;28;20048;-65
2023/09/13 09:16:30;;;;;;;7.82;3.95;;;14.70;99.90;;;;;;5036841;28;20138;-64
2023/09/13 09:19:00;;;;;;;8.55;3.72;;;14.80;99.90;;;;;;5036774;28;20250;-65
2023/09/13 09:21:26;;;;;;;11.45;4.35;;;14.80;99.90;;;;;;5066968;28;20516;-64
2023/09/13 09:23:52;;;;;;;8.43;4.10;;;14.90;99.90;;;;;;5059499;28;20132;-64
2023/09/13 09:26:18;;;;;;;10.45;4.15;;;15.00;99.90;;;;;;5038588;28;20040;-65
2023/09/13 09:28:46;;;;;;;10.15;4.28;;;15.10;99.90;;;;;;5029058;28;20037;-65
2023/09/13 09:31:12;;;;;;;10.25;3.85;;;15.40;99.90;;;;;;5025739;28;20502;-65
2023/09/13 09:33:39;;;;;;;9.70;4.10;;;15.80;99.90;;;;;;5036892;28;20041;-64
2023/09/13 09:36:08;;;;;;;8.10;4.05;;;15.90;99.90;;;;;;5050509;28;20049;-64
2023/09/13 09:38:35;;;;;;;16.90;4.30;;;16.00;99.90;;;;;;5042584;28;20053;-65
2023/09/13 09:41:02;;;;;;;12.38;3.85;;;16.20;99.90;;;;;;5079215;28;20048;-64
2023/09/13 09:43:29;;;;;;;9.75;4.45;;;16.40;99.90;;;;;;5032669;28;20406;-64
2023/09/13 09:45:55;;;;;;;17.90;4.38;;;16.50;99.90;;;;;;5048855;28;20029;-65
2023/09/13 09:48:21;;;;;;;13.23;4.18;;;16.50;99.90;;;;;;5053063;28;20461;-65
2023/09/13 09:50:54;;;;;;;10.70;4.10;;;16.40;99.90;;;;;;5036578;28;20076;-64
2023/09/13 09:53:21;;;;;;;8.25;4.50;;;16.40;99.90;;;;;;5063425;28;20041;-65
2023/09/13 09:55:48;;;;;;;6.70;3.50;;;16.40;99.90;;;;;;5072745;28;20110;-64
2023/09/13 09:58:15;;;;;;;8.65;3.58;;;16.40;99.90;;;;;;5037012;28;20072;-65
2023/09/13 10:00:53;;;;;;;7.35;3.53;;;16.30;99.90;;;;;;5084055;28;20076;-64
2023/09/13 10:03:21;;;;;;;8.45;3.65;;;16.30;99.90;;;;;;5052998;28;20032;-65
2023/09/13 10:06:11;;;;;;;9.23;3.25;;;16.30;99.90;;;;;;5052189;28;20397;-65
2023/09/13 10:08:40;;;;;;;11.30;3.70;;;16.30;99.90;;;;;;5059335;28;20053;-65
2023/09/13 10:11:10;;;;;;;7.88;3.15;;;16.30;99.90;;;;;;5036119;28;20094;-68
2023/09/13 10:13:37;;;;;;;6.85;3.28;;;16.50;99.90;;;;;;5031782;28;20057;-64
2023/09/13 10:16:06;;;;;;;7.43;2.90;;;16.60;99.90;;;;;;5043307;28;20110;-65
2023/09/13 10:18:44;;;;;;;7.00;3.17;;;16.80;99.90;;;;;;5042390;28;20939;-64
2023/09/13 10:21:10;;;;;;;7.07;3.22;;;17.10;99.90;;;;;;5043883;28;20665;-64
2023/09/13 10:23:48;;;;;;;7.05;3.45;;;17.30;99.90;;;;;;5048356;28;20048;-64
2023/09/13 10:26:15;;;;;;;10.13;3.20;;;17.40;99.90;;;;;;5040972;28;20063;-64
2023/09/13 10:28:44;;;;;;;11.50;3.65;;;17.40;99.90;;;;;;5046241;28;20089;-65
2023/09/13 10:31:19;;;;;;;14.75;3.55;;;17.20;99.90;;;;;;5050844;28;20048;-64
2023/09/13 10:33:53;;;;;;;7.88;3.35;;;17.10;99.90;;;;;;5046338;28;20383;-65
2023/09/13 10:36:31;;;;;;;5.97;2.97;;;17.20;99.90;;;;;;5017080;28;20055;-65
2023/09/13 10:39:30;;;;;;;8.30;3.38;;;17.30;99.90;;;;;;5046673;28;20060;-64
2023/09/13 10:42:06;;;;;;;6.25;3.30;;;17.60;99.90;;;;;;5032301;28;20068;-65
2023/09/13 10:44:34;;;;;;;7.07;3.53;;;17.90;99.90;;;;;;5049558;28;20079;-64
2023/09/13 10:47:01;;;;;;;8.40;3.15;;;18.10;99.90;;;;;;5043066;28;20041;-64
2023/09/13 10:49:27;;;;;;;13.32;3.67;;;18.40;99.90;;;;;;5026381;28;20497;-64
2023/09/13 10:51:58;;;;;;;10.57;3.42;;;18.30;99.90;;;;;;5008907;28;20044;-64
2023/09/13 10:54:25;;;;;;;8.40;3.53;;;18.20;99.90;;;;;;5031285;28;20761;-64
2023/09/13 10:56:51;;;;;;;8.82;3.00;;;17.90;99.90;;;;;;5067520;28;20048;-63
2023/09/13 10:59:20;;;;;;;11.95;3.55;;;17.30;99.90;;;;;;5049780;28;20133;-63
2023/09/13 11:01:46;;;;;;;7.38;3.35;;;17.10;99.90;;;;;;5027865;28;20056;-63
2023/09/13 11:04:21;;;;;;;8.52;3.30;;;16.90;99.90;;;;;;5011477;28;20062;-63
2023/09/13 11:06:51;;;;;;;7.72;3.10;;;16.60;99.90;;;;;;5069506;28;20045;-64
2023/09/13 11:09:28;;;;;;;11.30;3.22;;;16.30;99.90;;;;;;5028478;28;20047;-64
2023/09/13 11:11:57;;;;;;;7.80;3.85;;;16.10;99.90;;;;;;5026617;28;20075;-64
2023/09/13 11:14:28;;;;;;;7.70;3.25;;;16.00;99.90;;;;;;5044943;28;20037;-63
2023/09/13 11:16:54;;;;;;;10.23;3.40;;;15.90;99.90;;;;;;5046154;28;20131;-64
2023/09/13 11:19:27;;;;;;;8.30;3.28;;;15.90;99.90;;;;;;5065101;28;20053;-65
2023/09/13 11:22:00;;;;;;;8.75;3.42;;;16.00;99.90;;;;;;5027512;28;20504;-64
2023/09/13 11:24:38;;;;;;;9.57;3.88;;;15.90;99.90;;;;;;5044634;28;20187;-63
2023/09/13 11:27:17;;;;;;;7.93;3.50;;;16.00;99.90;;;;;;5047104;28;20033;-64
2023/09/13 11:29:50;;;;;;;9.18;3.38;;;16.00;99.90;;;;;;5018093;28;20468;-63
2023/09/13 11:32:28;;;;;;;11.70;3.65;;;16.00;99.90;;;;;;5049941;28;20644;-64
2023/09/13 11:35:04;;;;;;;9.20;3.40;;;16.10;99.90;;;;;;5044287;28;20052;-63
2023/09/13 11:37:32;;;;;;;9.68;3.40;;;16.20;99.90;;;;;;5045480;28;20122;-64
2023/09/13 11:40:18;;;;;;;8.35;3.40;;;16.30;99.90;;;;;;5046432;28;20509;-63
2023/09/13 11:42:50;;;;;;;9.70;3.55;;;16.40;99.90;;;;;;5033360;28;20111;-63
2023/09/13 11:45:17;;;;;;;;;;;16.40;99.90;;;;;;5028626;28;20127;-63
2023/09/13 11:47:43;;;;;;;11.88;3.72;;;16.50;99.90;;;;;;5068825;28;19921;-64
2023/09/13 11:50:09;;;;;;;8.98;3.55;;;16.60;99.90;;;;;;5025703;28;20036;-63
2023/09/13 11:53:21;;;;;;;9.43;3.85;;;16.70;99.90;;;;;;5044204;28;20041;-63
2023/09/13 11:55:55;;;;;;;9.43;3.80;;;16.70;99.90;;;;;;5045233;28;20053;-63
2023/09/13 11:58:31;;;;;;;7.20;3.05;;;16.80;99.90;;;;;;5030140;28;20102;-64
2023/09/13 12:00:59;;;;;;;10.10;3.25;;;16.90;99.90;;;;;;5043814;28;20460;-63
2023/09/13 12:03:27;;;;;;;8.15;3.60;;;17.10;99.90;;;;;;5014461;28;20052;-64
2023/09/13 12:05:54;;;;;;;9.68;3.35;;;17.40;99.90;;;;;;5011672;28;20097;-64
2023/09/13 12:08:23;;;;;;;8.15;2.95;;;17.80;99.90;;;;;;5028192;28;20076;-64
2023/09/13 12:10:52;;;;;;;9.85;3.85;;;18.00;99.90;;;;;;5058879;28;20512;-64
2023/09/13 12:13:18;;;;;;;7.25;3.10;;;18.20;99.90;;;;;;5025195;28;20489;-63
2023/09/13 12:16:01;;;;;;;12.25;3.30;;;18.30;99.90;;;;;;5044177;28;20064;-63
2023/09/13 12:18:28;;;;;;;10.55;2.90;;;18.40;99.90;;;;;;5037972;28;20041;-64
2023/09/13 12:21:00;;;;;;;6.32;3.00;;;18.30;99.90;;;;;;5027541;28;20180;-63
2023/09/13 12:23:26;;;;;;;4.30;2.45;;;18.30;99.90;;;;;;5040538;28;20046;-63
2023/09/13 12:25:57;;;;;;;7.88;3.28;;;18.30;99.90;;;;;;5017437;28;20033;-63
2023/09/13 12:28:26;;;;;;;6.80;3.38;;;18.20;99.90;;;;;;5083633;28;20108;-63
2023/09/13 12:30:53;;;;;;;8.00;3.20;;;18.10;99.90;;;;;;5043698;28;20376;-64
2023/09/13 12:33:20;;;;;;;7.10;3.60;;;18.00;99.90;;;;;;5039810;28;20052;-63
2023/09/13 12:35:48;;;;;;;11.20;3.22;;;17.80;99.90;;;;;;5057521;28;20060;-63
2023/09/13 12:38:16;;;;;;;7.30;3.33;;;17.70;99.90;;;;;;5051919;28;20060;-63
2023/09/13 12:40:48;;;;;;;6.88;3.85;;;17.60;99.90;;;;;;5049802;28;20471;-63
2023/09/13 12:43:14;;;;;;;11.67;3.13;;;17.50;99.90;;;;;;5050913;28;20037;-63
2023/09/13 12:45:40;;;;;;;6.47;3.38;;;17.50;99.90;;;;;;5020023;28;20634;-64